sensor_id;sensor_type;location;lat;lon;timestamp;pressure;altitude;pressure_sealevel;temperature;humidity
4528;BME280;62320;51.520;6.818;2023-02-14T00:09:51;103034.41;;;5.53;93.80
4528;BME280;62320;51.520;6.818;2023-02-14T00:19:52;103034.00;;;5.31;94.20
4528;BME280;62320;51.520;6.818;2023-02-14T00:29:54;103038.84;;;5.41;94.06
4528;BME280;62320;51.520;6.818;2023-02-14T00:40:17;103030.81;;;5.35;93.88
4528;BME280;62320;51.520;6.818;2023-02-14T00:50:18;103034.81;;;5.15;94.09
4528;BME280;62320;51.520;6.818;2023-02-14T01:00:20;103034.69;;;4.99;95.09
4528;BME280;62320;51.520;6.818;2023-02-14T01:10:22;103039.16;;;4.88;95.12
4528;BME280;62320;51.520;6.818;2023-02-14T01:20:23;103046.84;;;4.74;95.57
4528;BME280;62320;51.520;6.818;2023-02-14T01:30:25;103029.00;;;4.48;95.14
4528;BME280;62320;51.520;6.818;2023-02-14T01:40:27;103032.31;;;4.32;95.65
4528;BME280;62320;51.520;6.818;2023-02-14T01:50:33;103024.97;;;4.23;95.60
4528;BME280;62320;51.520;6.818;2023-02-14T02:00:37;103018.53;;;4.30;94.93
4528;BME280;62320;51.520;6.818;2023-02-14T02:11:00;103011.19;;;4.21;94.77
4528;BME280;62320;51.520;6.818;2023-02-14T02:51:58;102983.97;;;3.96;94.64
4528;BME280;62320;51.520;6.818;2023-02-14T03:02:24;102975.94;;;3.90;95.06
4528;BME280;62320;51.520;6.818;2023-02-14T03:33:04;102986.28;;;3.78;95.47
4528;BME280;62320;51.520;6.818;2023-02-14T03:43:11;102992.91;;;3.75;94.97
4528;BME280;62320;51.520;6.818;2023-02-14T03:53:19;102999.28;;;3.68;95.22
4528;BME280;62320;51.520;6.818;2023-02-14T04:03:23;102993.88;;;3.50;95.58
4528;BME280;62320;51.520;6.818;2023-02-14T04:13:27;102985.84;;;3.31;96.13
4528;BME280;62320;51.520;6.818;2023-02-14T04:23:29;102993.78;;;3.23;96.22
4528;BME280;62320;51.520;6.818;2023-02-14T04:33:31;102984.63;;;3.13;96.09
4528;BME280;62320;51.520;6.818;2023-02-14T04:43:33;102984.59;;;3.00;95.85
4528;BME280;62320;51.520;6.818;2023-02-14T04:53:34;102972.19;;;2.93;95.30
4528;BME280;62320;51.520;6.818;2023-02-14T05:03:40;102963.47;;;2.89;95.33
4528;BME280;62320;51.520;6.818;2023-02-14T05:13:41;102968.34;;;2.73;96.18
4528;BME280;62320;51.520;6.818;2023-02-14T05:23:52;102952.31;;;2.63;96.38
4528;BME280;62320;51.520;6.818;2023-02-14T05:33:54;102942.78;;;2.60;96.61
4528;BME280;62320;51.520;6.818;2023-02-14T05:43:55;102939.13;;;2.57;96.19
4528;BME280;62320;51.520;6.818;2023-02-14T05:53:57;102936.53;;;2.44;96.19
4528;BME280;62320;51.520;6.818;2023-02-14T06:04:00;102947.00;;;2.35;97.09
4528;BME280;62320;51.520;6.818;2023-02-14T06:14:02;102954.13;;;2.28;96.52
4528;BME280;62320;51.520;6.818;2023-02-14T06:24:03;102946.75;;;2.19;97.54
4528;BME280;62320;51.520;6.818;2023-02-14T06:34:05;102966.41;;;2.20;98.16
4528;BME280;62320;51.520;6.818;2023-02-14T06:44:06;102973.75;;;2.15;97.04
4528;BME280;62320;51.520;6.818;2023-02-14T06:54:10;102985.59;;;2.15;97.46
4528;BME280;62320;51.520;6.818;2023-02-14T07:04:12;102981.19;;;2.12;97.61
4528;BME280;62320;51.520;6.818;2023-02-14T07:14:13;102977.69;;;2.24;97.43
4528;BME280;62320;51.520;6.818;2023-02-14T07:24:15;102963.50;;;2.27;97.09
4528;BME280;62320;51.520;6.818;2023-02-14T07:34:16;102986.03;;;2.46;97.66
4528;BME280;62320;51.520;6.818;2023-02-14T07:44:18;102974.88;;;2.57;97.29
4528;BME280;62320;51.520;6.818;2023-02-14T07:54:19;102980.75;;;2.80;99.67
4528;BME280;62320;51.520;6.818;2023-02-14T08:04:21;102990.00;;;2.92;99.87
4528;BME280;62320;51.520;6.818;2023-02-14T08:14:26;102985.19;;;3.09;100.00
4528;BME280;62320;51.520;6.818;2023-02-14T08:24:27;102981.56;;;3.32;100.00
4528;BME280;62320;51.520;6.818;2023-02-14T08:34:29;102978.34;;;3.60;99.78
4528;BME280;62320;51.520;6.818;2023-02-14T08:44:31;102979.13;;;4.13;100.00
4528;BME280;62320;51.520;6.818;2023-02-14T08:54:32;102978.88;;;4.23;100.00
4528;BME280;62320;51.520;6.818;2023-02-14T09:04:34;102982.75;;;4.59;98.18
4528;BME280;62320;51.520;6.818;2023-02-14T09:14:38;102973.81;;;4.53;98.03
4528;BME280;62320;51.520;6.818;2023-02-14T09:24:40;102962.44;;;4.62;99.60
4528;BME280;62320;51.520;6.818;2023-02-14T09:34:41;102934.81;;;4.86;97.34
4528;BME280;62320;51.520;6.818;2023-02-14T09:45:15;102931.50;;;5.18;98.57
4528;BME280;62320;51.520;6.818;2023-02-14T09:55:18;102926.78;;;5.25;98.19
4528;BME280;62320;51.520;6.818;2023-02-14T10:05:23;102925.00;;;5.69;98.46
4528;BME280;62320;51.520;6.818;2023-02-14T10:15:48;102929.38;;;5.87;97.31
4528;BME280;62320;51.520;6.818;2023-02-14T10:25:56;102925.31;;;5.90;96.52
4528;BME280;62320;51.520;6.818;2023-02-14T10:36:12;102924.91;;;6.31;95.85
4528;BME280;62320;51.520;6.818;2023-02-14T10:57:05;102900.69;;;6.77;96.54
4528;BME280;62320;51.520;6.818;2023-02-14T11:07:13;102887.03;;;6.96;95.37
4528;BME280;62320;51.520;6.818;2023-02-14T11:17:29;102877.19;;;7.22;94.63
4528;BME280;62320;51.520;6.818;2023-02-14T11:27:32;102875.34;;;7.20;94.88
4528;BME280;62320;51.520;6.818;2023-02-14T11:37:49;102876.50;;;7.63;93.18
4528;BME280;62320;51.520;6.818;2023-02-14T12:08:40;102818.06;;;7.80;94.20
4528;BME280;62320;51.520;6.818;2023-02-14T12:18:51;102805.03;;;7.96;93.48
4528;BME280;62320;51.520;6.818;2023-02-14T12:29:04;102789.31;;;8.30;92.20
4528;BME280;62320;51.520;6.818;2023-02-14T13:09:45;102744.00;;;8.78;90.69
4528;BME280;62320;51.520;6.818;2023-02-14T13:30:27;102723.00;;;9.13;89.18
4528;BME280;62320;51.520;6.818;2023-02-14T13:40:31;102717.13;;;9.17;90.50
4528;BME280;62320;51.520;6.818;2023-02-14T14:00:53;102701.38;;;9.33;89.37
4528;BME280;62320;51.520;6.818;2023-02-14T14:10:57;102681.75;;;9.38;90.11
4528;BME280;62320;51.520;6.818;2023-02-14T14:21:14;102676.03;;;9.47;88.32
4528;BME280;62320;51.520;6.818;2023-02-14T14:31:19;102661.94;;;9.62;88.38
4528;BME280;62320;51.520;6.818;2023-02-14T14:41:28;102658.16;;;9.78;85.82
4528;BME280;62320;51.520;6.818;2023-02-14T14:51:34;102642.69;;;9.79;88.48
4528;BME280;62320;51.520;6.818;2023-02-14T15:01:38;102636.91;;;10.12;84.01
4528;BME280;62320;51.520;6.818;2023-02-14T15:11:40;102619.56;;;10.09;84.39
4528;BME280;62320;51.520;6.818;2023-02-14T15:22:13;102610.00;;;10.06;84.51
4528;BME280;62320;51.520;6.818;2023-02-14T15:32:18;102605.38;;;10.23;82.06
4528;BME280;62320;51.520;6.818;2023-02-14T15:42:28;102611.09;;;10.13;85.75
4528;BME280;62320;51.520;6.818;2023-02-14T15:52:32;102602.63;;;10.17;82.62
4528;BME280;62320;51.520;6.818;2023-02-14T16:02:36;102611.09;;;10.13;87.27
4528;BME280;62320;51.520;6.818;2023-02-14T16:12:42;102610.69;;;10.01;88.26
4528;BME280;62320;51.520;6.818;2023-02-14T16:23:18;102617.22;;;9.90;88.43
4528;BME280;62320;51.520;6.818;2023-02-14T16:33:31;102606.59;;;9.81;88.02
4528;BME280;62320;51.520;6.818;2023-02-14T16:43:34;102613.94;;;9.69;87.08
4528;BME280;62320;51.520;6.818;2023-02-14T16:53:35;102613.44;;;9.54;87.50
4528;BME280;62320;51.520;6.818;2023-02-14T17:03:37;102623.50;;;9.46;88.12
4528;BME280;62320;51.520;6.818;2023-02-14T17:13:41;102620.13;;;9.23;88.11
4528;BME280;62320;51.520;6.818;2023-02-14T17:23:44;102643.41;;;9.25;86.59
4528;BME280;62320;51.520;6.818;2023-02-14T17:33:46;102642.38;;;8.96;87.61
4528;BME280;62320;51.520;6.818;2023-02-14T17:43:49;102658.16;;;8.82;88.49
4528;BME280;62320;51.520;6.818;2023-02-14T17:53:52;102637.59;;;8.61;88.75
4528;BME280;62320;51.520;6.818;2023-02-14T18:03:53;102641.28;;;8.45;88.77
4528;BME280;62320;51.520;6.818;2023-02-14T18:13:55;102631.69;;;8.21;89.32
4528;BME280;62320;51.520;6.818;2023-02-14T18:24:02;102624.94;;;8.02;89.39
4528;BME280;62320;51.520;6.818;2023-02-14T18:34:04;102632.66;;;7.81;89.44
4528;BME280;62320;51.520;6.818;2023-02-14T18:44:06;102619.31;;;7.69;89.18
4528;BME280;62320;51.520;6.818;2023-02-14T18:54:07;102612.91;;;7.60;89.29
4528;BME280;62320;51.520;6.818;2023-02-14T19:04:10;102604.78;;;7.30;89.15
4528;BME280;62320;51.520;6.818;2023-02-14T19:14:12;102596.28;;;7.12;89.81
4528;BME280;62320;51.520;6.818;2023-02-14T19:24:15;102588.84;;;6.99;90.18
4528;BME280;62320;51.520;6.818;2023-02-14T19:34:27;102579.19;;;6.74;90.17
4528;BME280;62320;51.520;6.818;2023-02-14T19:44:32;102585.44;;;6.62;90.55
4528;BME280;62320;51.520;6.818;2023-02-14T19:54:37;102574.22;;;6.40;90.56
4528;BME280;62320;51.520;6.818;2023-02-14T20:04:38;102560.81;;;6.47;90.06
4528;BME280;62320;51.520;6.818;2023-02-14T20:14:40;102562.81;;;6.16;90.02
4528;BME280;62320;51.520;6.818;2023-02-14T20:24:52;102565.03;;;5.91;90.69
4528;BME280;62320;51.520;6.818;2023-02-14T20:34:53;102556.63;;;5.77;90.91
4528;BME280;62320;51.520;6.818;2023-02-14T20:44:55;102554.22;;;5.63;90.56
4528;BME280;62320;51.520;6.818;2023-02-14T20:54:56;102555.00;;;5.44;91.29
4528;BME280;62320;51.520;6.818;2023-02-14T21:04:58;102559.75;;;5.37;91.02
4528;BME280;62320;51.520;6.818;2023-02-14T21:15:00;102549.19;;;5.13;90.96
4528;BME280;62320;51.520;6.818;2023-02-14T21:25:02;102557.75;;;4.97;91.37
4528;BME280;62320;51.520;6.818;2023-02-14T21:35:04;102547.31;;;4.77;92.14
4528;BME280;62320;51.520;6.818;2023-02-14T21:45:06;102537.84;;;4.76;91.47
4528;BME280;62320;51.520;6.818;2023-02-14T21:55:26;102530.22;;;4.61;92.28
4528;BME280;62320;51.520;6.818;2023-02-14T22:05:28;102529.50;;;4.48;92.79
4528;BME280;62320;51.520;6.818;2023-02-14T22:15:30;102526.97;;;4.31;92.48
4528;BME280;62320;51.520;6.818;2023-02-14T22:25:31;102519.34;;;4.17;92.87
4528;BME280;62320;51.520;6.818;2023-02-14T22:35:33;102516.22;;;4.06;92.60
4528;BME280;62320;51.520;6.818;2023-02-14T22:45:34;102512.34;;;3.98;92.71
4528;BME280;62320;51.520;6.818;2023-02-14T22:55:36;102513.69;;;3.92;93.10
4528;BME280;62320;51.520;6.818;2023-02-14T23:05:37;102504.28;;;3.76;93.35
4528;BME280;62320;51.520;6.818;2023-02-14T23:15:39;102496.69;;;3.78;92.87
4528;BME280;62320;51.520;6.818;2023-02-14T23:25:59;102501.34;;;3.54;93.18
4528;BME280;62320;51.520;6.818;2023-02-14T23:36:02;102489.22;;;3.66;92.01
4528;BME280;62320;51.520;6.818;2023-02-14T23:46:04;102485.63;;;3.48;93.39
4528;BME280;62320;51.520;6.818;2023-02-14T23:56:06;102491.41;;;3.29;93.49
